sensor_id;sensor_type;location;lat;lon;timestamp;P1;durP1;ratioP1;P2;durP2;ratioP2
49578;SDS011;35483;50.828;3.228;2023-04-01T00:01:46;7.47;;;4.25;;
49578;SDS011;35483;50.828;3.228;2023-04-01T00:04:12;8.57;;;3.60;;
49578;SDS011;35483;50.828;3.228;2023-04-01T00:06:37;7.10;;;3.92;;
49578;SDS011;35483;50.828;3.228;2023-04-01T00:09:03;6.10;;;3.67;;
49578;SDS011;35483;50.828;3.228;2023-04-01T00:11:29;6.88;;;3.33;;
49578;SDS011;35483;50.828;3.228;2023-04-01T00:13:55;7.40;;;3.42;;
49578;SDS011;35483;50.828;3.228;2023-04-01T00:16:21;8.20;;;4.03;;
49578;SDS011;35483;50.828;3.228;2023-04-01T00:18:47;7.60;;;3.95;;
49578;SDS011;35483;50.828;3.228;2023-04-01T00:21:13;5.88;;;3.20;;
49578;SDS011;35483;50.828;3.228;2023-04-01T00:23:39;6.60;;;2.90;;
49578;SDS011;35483;50.828;3.228;2023-04-01T00:26:05;7.10;;;3.38;;
49578;SDS011;35483;50.828;3.228;2023-04-01T00:28:31;6.43;;;3.25;;
49578;SDS011;35483;50.828;3.228;2023-04-01T00:30:58;7.25;;;3.67;;
49578;SDS011;35483;50.828;3.228;2023-04-01T00:33:28;7.32;;;3.83;;
49578;SDS011;35483;50.828;3.228;2023-04-01T00:35:53;6.68;;;4.10;;
49578;SDS011;35483;50.828;3.228;2023-04-01T00:38:19;8.02;;;3.90;;
49578;SDS011;35483;50.828;3.228;2023-04-01T00:40:45;8.25;;;4.45;;
49578;SDS011;35483;50.828;3.228;2023-04-01T00:43:13;11.57;;;5.07;;
49578;SDS011;35483;50.828;3.228;2023-04-01T00:45:43;8.45;;;4.53;;
49578;SDS011;35483;50.828;3.228;2023-04-01T00:48:14;7.97;;;5.78;;
49578;SDS011;35483;50.828;3.228;2023-04-01T00:50:40;5.30;;;4.20;;
49578;SDS011;35483;50.828;3.228;2023-04-01T00:53:09;8.77;;;5.03;;
49578;SDS011;35483;50.828;3.228;2023-04-01T00:55:37;7.07;;;4.90;;
49578;SDS011;35483;50.828;3.228;2023-04-01T00:58:09;9.20;;;4.93;;
49578;SDS011;35483;50.828;3.228;2023-04-01T01:00:40;10.07;;;5.80;;
49578;SDS011;35483;50.828;3.228;2023-04-01T01:03:07;9.52;;;4.53;;
49578;SDS011;35483;50.828;3.228;2023-04-01T01:05:38;8.95;;;4.82;;
49578;SDS011;35483;50.828;3.228;2023-04-01T01:10:56;9.38;;;5.85;;
49578;SDS011;35483;50.828;3.228;2023-04-01T01:13:36;10.48;;;5.38;;
49578;SDS011;35483;50.828;3.228;2023-04-01T01:16:15;7.78;;;5.78;;
49578;SDS011;35483;50.828;3.228;2023-04-01T01:18:52;9.05;;;5.63;;
49578;SDS011;35483;50.828;3.228;2023-04-01T01:22:07;11.40;;;5.90;;
49578;SDS011;35483;50.828;3.228;2023-04-01T01:27:29;11.75;;;7.30;;
49578;SDS011;35483;50.828;3.228;2023-04-01T01:32:55;14.05;;;7.70;;
49578;SDS011;35483;50.828;3.228;2023-04-01T01:35:36;13.32;;;9.45;;
49578;SDS011;35483;50.828;3.228;2023-04-01T01:38:10;12.02;;;8.77;;
49578;SDS011;35483;50.828;3.228;2023-04-01T01:40:41;17.52;;;8.70;;
49578;SDS011;35483;50.828;3.228;2023-04-01T01:43:10;14.93;;;7.97;;
49578;SDS011;35483;50.828;3.228;2023-04-01T01:45:40;13.30;;;7.43;;
49578;SDS011;35483;50.828;3.228;2023-04-01T01:48:11;13.35;;;7.18;;
49578;SDS011;35483;50.828;3.228;2023-04-01T01:50:40;14.98;;;7.72;;
49578;SDS011;35483;50.828;3.228;2023-04-01T01:53:08;13.18;;;8.20;;
49578;SDS011;35483;50.828;3.228;2023-04-01T01:55:36;13.77;;;8.82;;
49578;SDS011;35483;50.828;3.228;2023-04-01T01:58:16;19.17;;;9.65;;
49578;SDS011;35483;50.828;3.228;2023-04-01T02:00:51;15.15;;;8.90;;
49578;SDS011;35483;50.828;3.228;2023-04-01T02:03:21;13.60;;;8.60;;
49578;SDS011;35483;50.828;3.228;2023-04-01T02:05:50;15.95;;;8.82;;
49578;SDS011;35483;50.828;3.228;2023-04-01T02:08:23;10.57;;;8.18;;
49578;SDS011;35483;50.828;3.228;2023-04-01T02:10:58;13.57;;;7.40;;
49578;SDS011;35483;50.828;3.228;2023-04-01T02:13:31;12.05;;;7.65;;
49578;SDS011;35483;50.828;3.228;2023-04-01T02:16:04;11.68;;;6.80;;
49578;SDS011;35483;50.828;3.228;2023-04-01T02:18:36;12.48;;;6.72;;
49578;SDS011;35483;50.828;3.228;2023-04-01T02:21:03;11.88;;;6.25;;
49578;SDS011;35483;50.828;3.228;2023-04-01T02:23:30;11.32;;;6.60;;
49578;SDS011;35483;50.828;3.228;2023-04-01T02:25:59;9.50;;;5.70;;
49578;SDS011;35483;50.828;3.228;2023-04-01T02:28:26;8.52;;;5.20;;
49578;SDS011;35483;50.828;3.228;2023-04-01T02:30:53;10.50;;;5.47;;
49578;SDS011;35483;50.828;3.228;2023-04-01T02:33:20;9.88;;;6.20;;
49578;SDS011;35483;50.828;3.228;2023-04-01T02:35:47;10.20;;;6.05;;
49578;SDS011;35483;50.828;3.228;2023-04-01T02:38:13;11.00;;;6.45;;
49578;SDS011;35483;50.828;3.228;2023-04-01T02:40:51;8.80;;;6.30;;
49578;SDS011;35483;50.828;3.228;2023-04-01T02:43:21;11.70;;;6.55;;
49578;SDS011;35483;50.828;3.228;2023-04-01T02:45:48;12.32;;;7.05;;
49578;SDS011;35483;50.828;3.228;2023-04-01T02:48:14;10.88;;;7.00;;
49578;SDS011;35483;50.828;3.228;2023-04-01T02:50:39;12.98;;;7.57;;
49578;SDS011;35483;50.828;3.228;2023-04-01T02:53:05;12.38;;;7.57;;
49578;SDS011;35483;50.828;3.228;2023-04-01T02:55:32;14.80;;;8.75;;
49578;SDS011;35483;50.828;3.228;2023-04-01T02:57:58;13.00;;;8.40;;
49578;SDS011;35483;50.828;3.228;2023-04-01T03:00:24;11.25;;;8.07;;
49578;SDS011;35483;50.828;3.228;2023-04-01T03:02:51;12.32;;;7.82;;
49578;SDS011;35483;50.828;3.228;2023-04-01T03:05:17;11.73;;;8.02;;
49578;SDS011;35483;50.828;3.228;2023-04-01T03:07:43;11.70;;;7.03;;
49578;SDS011;35483;50.828;3.228;2023-04-01T03:10:09;14.45;;;7.97;;
49578;SDS011;35483;50.828;3.228;2023-04-01T03:12:35;13.10;;;7.63;;
49578;SDS011;35483;50.828;3.228;2023-04-01T03:15:01;11.82;;;7.32;;
49578;SDS011;35483;50.828;3.228;2023-04-01T03:17:27;12.60;;;8.90;;
49578;SDS011;35483;50.828;3.228;2023-04-01T03:19:53;13.95;;;8.98;;
49578;SDS011;35483;50.828;3.228;2023-04-01T03:22:19;11.00;;;9.07;;
49578;SDS011;35483;50.828;3.228;2023-04-01T03:24:46;14.38;;;9.30;;
49578;SDS011;35483;50.828;3.228;2023-04-01T03:27:13;18.65;;;10.48;;
49578;SDS011;35483;50.828;3.228;2023-04-01T03:29:39;12.43;;;9.10;;
49578;SDS011;35483;50.828;3.228;2023-04-01T03:32:05;15.30;;;10.40;;
49578;SDS011;35483;50.828;3.228;2023-04-01T03:34:31;15.02;;;8.70;;
49578;SDS011;35483;50.828;3.228;2023-04-01T03:36:56;13.27;;;9.02;;
49578;SDS011;35483;50.828;3.228;2023-04-01T03:39:22;14.18;;;9.27;;
49578;SDS011;35483;50.828;3.228;2023-04-01T03:41:48;13.70;;;9.23;;
49578;SDS011;35483;50.828;3.228;2023-04-01T03:44:14;14.23;;;9.98;;
49578;SDS011;35483;50.828;3.228;2023-04-01T03:46:40;15.65;;;9.98;;
49578;SDS011;35483;50.828;3.228;2023-04-01T03:49:06;17.08;;;10.27;;
49578;SDS011;35483;50.828;3.228;2023-04-01T03:51:37;17.05;;;12.05;;
49578;SDS011;35483;50.828;3.228;2023-04-01T03:54:03;16.00;;;11.50;;
49578;SDS011;35483;50.828;3.228;2023-04-01T03:56:30;14.27;;;10.80;;
49578;SDS011;35483;50.828;3.228;2023-04-01T03:58:55;16.50;;;10.35;;
49578;SDS011;35483;50.828;3.228;2023-04-01T04:01:21;14.93;;;9.88;;
49578;SDS011;35483;50.828;3.228;2023-04-01T04:03:47;13.77;;;9.95;;
49578;SDS011;35483;50.828;3.228;2023-04-01T04:06:14;13.90;;;10.02;;
49578;SDS011;35483;50.828;3.228;2023-04-01T04:08:40;16.60;;;10.35;;
49578;SDS011;35483;50.828;3.228;2023-04-01T04:11:06;15.18;;;10.10;;
49578;SDS011;35483;50.828;3.228;2023-04-01T04:13:32;15.57;;;9.60;;
49578;SDS011;35483;50.828;3.228;2023-04-01T04:15:58;13.20;;;9.00;;
49578;SDS011;35483;50.828;3.228;2023-04-01T04:18:24;14.07;;;9.23;;
49578;SDS011;35483;50.828;3.228;2023-04-01T04:20:49;13.48;;;8.52;;
49578;SDS011;35483;50.828;3.228;2023-04-01T04:23:16;10.80;;;8.23;;
49578;SDS011;35483;50.828;3.228;2023-04-01T04:25:52;12.05;;;8.63;;
49578;SDS011;35483;50.828;3.228;2023-04-01T04:28:24;12.30;;;9.05;;
49578;SDS011;35483;50.828;3.228;2023-04-01T04:30:51;12.27;;;9.50;;
49578;SDS011;35483;50.828;3.228;2023-04-01T04:33:17;11.88;;;9.00;;
49578;SDS011;35483;50.828;3.228;2023-04-01T04:35:43;11.55;;;8.55;;
49578;SDS011;35483;50.828;3.228;2023-04-01T04:38:09;11.50;;;8.25;;
49578;SDS011;35483;50.828;3.228;2023-04-01T04:40:38;11.00;;;8.05;;
49578;SDS011;35483;50.828;3.228;2023-04-01T04:43:04;11.23;;;8.57;;
49578;SDS011;35483;50.828;3.228;2023-04-01T04:45:30;10.23;;;7.22;;
49578;SDS011;35483;50.828;3.228;2023-04-01T04:47:57;9.85;;;7.05;;
49578;SDS011;35483;50.828;3.228;2023-04-01T04:50:23;10.27;;;6.57;;
49578;SDS011;35483;50.828;3.228;2023-04-01T04:52:49;9.18;;;6.72;;
49578;SDS011;35483;50.828;3.228;2023-04-01T04:55:15;7.05;;;6.35;;
49578;SDS011;35483;50.828;3.228;2023-04-01T04:57:41;8.75;;;6.78;;
49578;SDS011;35483;50.828;3.228;2023-04-01T05:00:07;11.18;;;6.68;;
49578;SDS011;35483;50.828;3.228;2023-04-01T05:02:34;9.05;;;6.60;;
49578;SDS011;35483;50.828;3.228;2023-04-01T05:05:01;7.18;;;6.45;;
49578;SDS011;35483;50.828;3.228;2023-04-01T05:07:26;10.63;;;6.93;;
49578;SDS011;35483;50.828;3.228;2023-04-01T05:09:52;7.85;;;6.47;;
49578;SDS011;35483;50.828;3.228;2023-04-01T05:12:18;9.43;;;6.18;;
49578;SDS011;35483;50.828;3.228;2023-04-01T05:14:44;7.80;;;5.85;;
49578;SDS011;35483;50.828;3.228;2023-04-01T05:17:10;7.45;;;6.38;;
49578;SDS011;35483;50.828;3.228;2023-04-01T05:19:37;9.73;;;6.20;;
49578;SDS011;35483;50.828;3.228;2023-04-01T05:22:03;8.45;;;6.35;;
49578;SDS011;35483;50.828;3.228;2023-04-01T05:24:29;8.27;;;6.30;;
49578;SDS011;35483;50.828;3.228;2023-04-01T05:26:55;7.50;;;5.97;;
49578;SDS011;35483;50.828;3.228;2023-04-01T05:29:22;7.30;;;6.10;;
49578;SDS011;35483;50.828;3.228;2023-04-01T05:31:49;9.85;;;6.50;;
49578;SDS011;35483;50.828;3.228;2023-04-01T05:34:14;8.48;;;6.38;;
49578;SDS011;35483;50.828;3.228;2023-04-01T05:36:41;8.93;;;6.30;;
49578;SDS011;35483;50.828;3.228;2023-04-01T05:39:07;9.73;;;7.03;;
49578;SDS011;35483;50.828;3.228;2023-04-01T05:41:36;7.50;;;6.38;;
49578;SDS011;35483;50.828;3.228;2023-04-01T05:44:03;10.05;;;7.30;;
49578;SDS011;35483;50.828;3.228;2023-04-01T05:46:30;8.73;;;6.90;;
49578;SDS011;35483;50.828;3.228;2023-04-01T05:48:56;10.23;;;7.95;;
49578;SDS011;35483;50.828;3.228;2023-04-01T05:51:22;10.10;;;8.18;;
49578;SDS011;35483;50.828;3.228;2023-04-01T05:53:48;10.30;;;8.02;;
49578;SDS011;35483;50.828;3.228;2023-04-01T05:56:13;9.25;;;7.90;;
49578;SDS011;35483;50.828;3.228;2023-04-01T05:58:39;11.82;;;8.85;;
49578;SDS011;35483;50.828;3.228;2023-04-01T06:01:06;10.35;;;8.00;;
49578;SDS011;35483;50.828;3.228;2023-04-01T06:03:33;12.07;;;7.95;;
49578;SDS011;35483;50.828;3.228;2023-04-01T06:05:59;9.40;;;7.57;;
49578;SDS011;35483;50.828;3.228;2023-04-01T06:08:26;8.82;;;7.32;;
49578;SDS011;35483;50.828;3.228;2023-04-01T06:11:01;9.88;;;7.03;;
49578;SDS011;35483;50.828;3.228;2023-04-01T06:16:22;8.07;;;6.38;;
49578;SDS011;35483;50.828;3.228;2023-04-01T06:19:03;7.43;;;6.30;;
49578;SDS011;35483;50.828;3.228;2023-04-01T06:24:54;9.23;;;7.55;;
49578;SDS011;35483;50.828;3.228;2023-04-01T06:33:40;10.50;;;7.70;;
49578;SDS011;35483;50.828;3.228;2023-04-01T06:39:27;10.27;;;8.93;;
49578;SDS011;35483;50.828;3.228;2023-04-01T06:42:19;12.60;;;9.25;;
49578;SDS011;35483;50.828;3.228;2023-04-01T06:45:15;10.57;;;7.32;;
49578;SDS011;35483;50.828;3.228;2023-04-01T06:50:57;8.20;;;6.30;;
49578;SDS011;35483;50.828;3.228;2023-04-01T06:53:39;8.43;;;6.13;;
49578;SDS011;35483;50.828;3.228;2023-04-01T06:56:11;7.18;;;6.25;;
49578;SDS011;35483;50.828;3.228;2023-04-01T06:58:48;5.95;;;5.18;;
49578;SDS011;35483;50.828;3.228;2023-04-01T07:01:29;5.43;;;4.55;;
49578;SDS011;35483;50.828;3.228;2023-04-01T07:04:03;6.65;;;4.22;;
49578;SDS011;35483;50.828;3.228;2023-04-01T07:06:47;5.88;;;4.53;;
49578;SDS011;35483;50.828;3.228;2023-04-01T07:09:26;8.43;;;4.60;;
49578;SDS011;35483;50.828;3.228;2023-04-01T07:11:59;5.85;;;4.43;;
49578;SDS011;35483;50.828;3.228;2023-04-01T07:14:37;6.53;;;4.38;;
49578;SDS011;35483;50.828;3.228;2023-04-01T07:19:54;5.03;;;4.22;;
49578;SDS011;35483;50.828;3.228;2023-04-01T07:25:25;6.07;;;4.75;;
49578;SDS011;35483;50.828;3.228;2023-04-01T07:27:52;7.38;;;4.90;;
49578;SDS011;35483;50.828;3.228;2023-04-01T07:30:23;6.60;;;4.93;;
49578;SDS011;35483;50.828;3.228;2023-04-01T07:43:19;3.28;;;2.70;;
49578;SDS011;35483;50.828;3.228;2023-04-01T07:45:51;3.13;;;2.72;;
49578;SDS011;35483;50.828;3.228;2023-04-01T07:48:26;5.20;;;3.50;;
49578;SDS011;35483;50.828;3.228;2023-04-01T07:56:24;5.18;;;3.40;;
49578;SDS011;35483;50.828;3.228;2023-04-01T07:59:02;6.30;;;3.88;;
49578;SDS011;35483;50.828;3.228;2023-04-01T08:07:09;6.38;;;3.72;;
49578;SDS011;35483;50.828;3.228;2023-04-01T08:09:58;3.90;;;3.60;;
49578;SDS011;35483;50.828;3.228;2023-04-01T08:12:36;4.85;;;3.15;;
49578;SDS011;35483;50.828;3.228;2023-04-01T08:15:26;3.63;;;3.23;;
49578;SDS011;35483;50.828;3.228;2023-04-01T08:20:58;7.45;;;4.15;;
49578;SDS011;35483;50.828;3.228;2023-04-01T08:23:28;4.60;;;3.45;;
49578;SDS011;35483;50.828;3.228;2023-04-01T08:28:35;4.78;;;4.03;;
49578;SDS011;35483;50.828;3.228;2023-04-01T08:31:11;4.65;;;3.55;;
49578;SDS011;35483;50.828;3.228;2023-04-01T08:33:44;4.43;;;3.30;;
49578;SDS011;35483;50.828;3.228;2023-04-01T08:36:14;4.32;;;3.33;;
49578;SDS011;35483;50.828;3.228;2023-04-01T08:53:11;3.00;;;2.70;;
49578;SDS011;35483;50.828;3.228;2023-04-01T09:00:53;5.57;;;2.60;;
49578;SDS011;35483;50.828;3.228;2023-04-01T09:06:40;5.50;;;3.65;;
49578;SDS011;35483;50.828;3.228;2023-04-01T09:31:18;3.83;;;3.03;;
49578;SDS011;35483;50.828;3.228;2023-04-01T09:41:40;3.10;;;2.47;;
49578;SDS011;35483;50.828;3.228;2023-04-01T09:44:32;3.80;;;2.88;;
49578;SDS011;35483;50.828;3.228;2023-04-01T09:47:06;2.65;;;2.00;;
49578;SDS011;35483;50.828;3.228;2023-04-01T09:58:35;1.80;;;1.70;;
49578;SDS011;35483;50.828;3.228;2023-04-01T10:24:07;1.42;;;1.23;;
49578;SDS011;35483;50.828;3.228;2023-04-01T10:41:01;3.80;;;1.60;;
49578;SDS011;35483;50.828;3.228;2023-04-01T10:50:08;2.85;;;1.50;;
49578;SDS011;35483;50.828;3.228;2023-04-01T11:09:20;2.20;;;1.88;;
49578;SDS011;35483;50.828;3.228;2023-04-01T11:12:09;2.00;;;1.40;;
49578;SDS011;35483;50.828;3.228;2023-04-01T11:35:43;2.42;;;1.92;;
49578;SDS011;35483;50.828;3.228;2023-04-01T12:14:22;2.53;;;1.40;;
49578;SDS011;35483;50.828;3.228;2023-04-01T12:17:03;2.67;;;1.40;;
49578;SDS011;35483;50.828;3.228;2023-04-01T12:30:51;1.60;;;1.50;;
49578;SDS011;35483;50.828;3.228;2023-04-01T12:52:25;2.05;;;1.13;;
49578;SDS011;35483;50.828;3.228;2023-04-01T12:57:59;1.23;;;1.10;;
49578;SDS011;35483;50.828;3.228;2023-04-01T13:09:09;1.33;;;1.00;;
49578;SDS011;35483;50.828;3.228;2023-04-01T13:14:23;1.33;;;1.13;;
49578;SDS011;35483;50.828;3.228;2023-04-01T13:27:48;2.00;;;1.25;;
49578;SDS011;35483;50.828;3.228;2023-04-01T13:30:27;1.95;;;0.93;;
49578;SDS011;35483;50.828;3.228;2023-04-01T13:39:22;1.25;;;0.90;;
49578;SDS011;35483;50.828;3.228;2023-04-01T13:44:51;0.70;;;0.70;;
49578;SDS011;35483;50.828;3.228;2023-04-01T13:49:57;2.83;;;1.00;;
49578;SDS011;35483;50.828;3.228;2023-04-01T14:03:42;0.93;;;0.90;;
49578;SDS011;35483;50.828;3.228;2023-04-01T14:06:31;0.90;;;0.90;;
49578;SDS011;35483;50.828;3.228;2023-04-01T14:12:13;1.13;;;1.02;;
49578;SDS011;35483;50.828;3.228;2023-04-01T14:15:03;1.98;;;1.60;;
49578;SDS011;35483;50.828;3.228;2023-04-01T14:20:41;1.50;;;1.20;;
49578;SDS011;35483;50.828;3.228;2023-04-01T14:31:21;1.40;;;1.20;;
49578;SDS011;35483;50.828;3.228;2023-04-01T14:37:11;1.20;;;1.10;;
49578;SDS011;35483;50.828;3.228;2023-04-01T14:43:01;2.00;;;1.52;;
49578;SDS011;35483;50.828;3.228;2023-04-01T14:48:32;1.38;;;1.00;;
49578;SDS011;35483;50.828;3.228;2023-04-01T14:56:36;1.73;;;1.00;;
49578;SDS011;35483;50.828;3.228;2023-04-01T14:59:38;1.80;;;1.70;;
49578;SDS011;35483;50.828;3.228;2023-04-01T15:07:09;2.17;;;1.08;;
49578;SDS011;35483;50.828;3.228;2023-04-01T15:10:28;1.92;;;1.20;;
49578;SDS011;35483;50.828;3.228;2023-04-01T15:17:55;1.83;;;1.40;;
49578;SDS011;35483;50.828;3.228;2023-04-01T15:23:38;1.60;;;1.10;;
49578;SDS011;35483;50.828;3.228;2023-04-01T15:26:44;2.42;;;1.60;;
49578;SDS011;35483;50.828;3.228;2023-04-01T15:34:59;1.95;;;1.20;;
49578;SDS011;35483;50.828;3.228;2023-04-01T15:37:54;2.22;;;1.67;;
49578;SDS011;35483;50.828;3.228;2023-04-01T15:40:33;3.20;;;2.58;;
49578;SDS011;35483;50.828;3.228;2023-04-01T15:43:17;3.63;;;2.72;;
49578;SDS011;35483;50.828;3.228;2023-04-01T15:48:52;2.05;;;1.33;;
49578;SDS011;35483;50.828;3.228;2023-04-01T15:54:02;1.45;;;1.35;;
49578;SDS011;35483;50.828;3.228;2023-04-01T16:00:02;2.05;;;1.88;;
49578;SDS011;35483;50.828;3.228;2023-04-01T16:05:23;4.95;;;1.98;;
49578;SDS011;35483;50.828;3.228;2023-04-01T16:08:19;3.58;;;1.98;;
49578;SDS011;35483;50.828;3.228;2023-04-01T16:29:52;5.05;;;2.40;;
49578;SDS011;35483;50.828;3.228;2023-04-01T16:32:30;4.63;;;2.15;;
49578;SDS011;35483;50.828;3.228;2023-04-01T16:38:09;3.55;;;3.08;;
49578;SDS011;35483;50.828;3.228;2023-04-01T16:43:42;7.10;;;4.40;;
49578;SDS011;35483;50.828;3.228;2023-04-01T16:51:44;7.28;;;2.33;;
49578;SDS011;35483;50.828;3.228;2023-04-01T16:56:47;5.18;;;2.50;;
49578;SDS011;35483;50.828;3.228;2023-04-01T16:59:27;5.13;;;2.60;;
49578;SDS011;35483;50.828;3.228;2023-04-01T17:04:40;4.40;;;2.30;;
49578;SDS011;35483;50.828;3.228;2023-04-01T17:07:11;7.25;;;3.17;;
49578;SDS011;35483;50.828;3.228;2023-04-01T17:12:37;4.55;;;2.60;;
49578;SDS011;35483;50.828;3.228;2023-04-01T17:15:41;3.28;;;2.40;;
49578;SDS011;35483;50.828;3.228;2023-04-01T17:20:55;6.28;;;3.90;;
49578;SDS011;35483;50.828;3.228;2023-04-01T17:32:22;4.15;;;2.67;;
49578;SDS011;35483;50.828;3.228;2023-04-01T17:40:44;4.22;;;2.92;;
49578;SDS011;35483;50.828;3.228;2023-04-01T17:43:44;6.97;;;3.10;;
49578;SDS011;35483;50.828;3.228;2023-04-01T17:54:39;4.07;;;3.20;;
49578;SDS011;35483;50.828;3.228;2023-04-01T18:00:24;3.63;;;2.70;;
49578;SDS011;35483;50.828;3.228;2023-04-01T18:03:20;4.75;;;4.03;;
49578;SDS011;35483;50.828;3.228;2023-04-01T18:09:05;4.95;;;4.47;;
49578;SDS011;35483;50.828;3.228;2023-04-01T18:17:18;7.03;;;4.93;;
49578;SDS011;35483;50.828;3.228;2023-04-01T18:22:43;5.75;;;4.40;;
49578;SDS011;35483;50.828;3.228;2023-04-01T18:27:49;5.43;;;4.15;;
49578;SDS011;35483;50.828;3.228;2023-04-01T18:30:35;5.25;;;4.47;;
49578;SDS011;35483;50.828;3.228;2023-04-01T18:33:03;6.00;;;5.30;;
49578;SDS011;35483;50.828;3.228;2023-04-01T18:35:53;5.03;;;4.50;;
49578;SDS011;35483;50.828;3.228;2023-04-01T18:38:36;5.03;;;3.97;;
49578;SDS011;35483;50.828;3.228;2023-04-01T18:41:14;5.22;;;4.70;;
49578;SDS011;35483;50.828;3.228;2023-04-01T18:49:11;8.55;;;5.43;;
49578;SDS011;35483;50.828;3.228;2023-04-01T18:51:53;6.53;;;5.88;;
49578;SDS011;35483;50.828;3.228;2023-04-01T19:02:16;6.57;;;5.90;;
49578;SDS011;35483;50.828;3.228;2023-04-01T19:07:43;5.07;;;4.28;;
49578;SDS011;35483;50.828;3.228;2023-04-01T19:21:55;6.22;;;4.47;;
49578;SDS011;35483;50.828;3.228;2023-04-01T19:24:12;5.28;;;4.63;;
49578;SDS011;35483;50.828;3.228;2023-04-01T19:51:18;6.97;;;4.50;;
49578;SDS011;35483;50.828;3.228;2023-04-01T19:59:32;12.27;;;5.82;;
49578;SDS011;35483;50.828;3.228;2023-04-01T20:04:45;10.10;;;6.38;;
49578;SDS011;35483;50.828;3.228;2023-04-01T20:07:34;12.25;;;7.10;;
49578;SDS011;35483;50.828;3.228;2023-04-01T20:12:56;9.48;;;6.47;;
49578;SDS011;35483;50.828;3.228;2023-04-01T20:15:36;9.25;;;6.22;;
49578;SDS011;35483;50.828;3.228;2023-04-01T20:18:19;8.82;;;6.22;;
49578;SDS011;35483;50.828;3.228;2023-04-01T20:20:53;7.28;;;4.93;;
49578;SDS011;35483;50.828;3.228;2023-04-01T20:26:21;10.23;;;6.90;;
49578;SDS011;35483;50.828;3.228;2023-04-01T20:29:05;6.32;;;5.28;;
49578;SDS011;35483;50.828;3.228;2023-04-01T20:31:44;10.35;;;6.70;;
49578;SDS011;35483;50.828;3.228;2023-04-01T20:37:36;12.65;;;6.45;;
49578;SDS011;35483;50.828;3.228;2023-04-01T20:40:21;10.75;;;7.55;;
49578;SDS011;35483;50.828;3.228;2023-04-01T20:51:05;12.65;;;8.27;;
49578;SDS011;35483;50.828;3.228;2023-04-01T21:10:06;17.17;;;10.98;;
49578;SDS011;35483;50.828;3.228;2023-04-01T21:35:39;23.38;;;14.38;;
49578;SDS011;35483;50.828;3.228;2023-04-01T21:43:54;19.42;;;11.77;;
49578;SDS011;35483;50.828;3.228;2023-04-01T21:52:35;16.90;;;11.70;;
49578;SDS011;35483;50.828;3.228;2023-04-01T22:03:46;17.40;;;10.13;;
49578;SDS011;35483;50.828;3.228;2023-04-01T22:06:37;12.57;;;8.88;;
49578;SDS011;35483;50.828;3.228;2023-04-01T22:09:21;18.45;;;10.52;;
49578;SDS011;35483;50.828;3.228;2023-04-01T22:20:15;24.85;;;13.65;;
49578;SDS011;35483;50.828;3.228;2023-04-01T22:25:55;19.45;;;12.65;;
49578;SDS011;35483;50.828;3.228;2023-04-01T22:31:07;20.92;;;12.07;;
49578;SDS011;35483;50.828;3.228;2023-04-01T22:36:45;29.27;;;15.20;;
49578;SDS011;35483;50.828;3.228;2023-04-01T22:39:26;18.13;;;12.30;;
49578;SDS011;35483;50.828;3.228;2023-04-01T22:42:06;27.55;;;16.17;;
49578;SDS011;35483;50.828;3.228;2023-04-01T22:50:16;28.77;;;18.52;;
49578;SDS011;35483;50.828;3.228;2023-04-01T22:57:59;25.58;;;18.55;;
49578;SDS011;35483;50.828;3.228;2023-04-01T23:00:48;29.47;;;18.73;;
49578;SDS011;35483;50.828;3.228;2023-04-01T23:06:32;27.00;;;16.67;;
49578;SDS011;35483;50.828;3.228;2023-04-01T23:12:04;30.30;;;14.85;;
49578;SDS011;35483;50.828;3.228;2023-04-01T23:14:37;24.92;;;14.95;;
49578;SDS011;35483;50.828;3.228;2023-04-01T23:17:31;25.27;;;15.05;;
49578;SDS011;35483;50.828;3.228;2023-04-01T23:25:39;24.15;;;14.05;;
49578;SDS011;35483;50.828;3.228;2023-04-01T23:33:38;19.75;;;12.30;;
49578;SDS011;35483;50.828;3.228;2023-04-01T23:36:02;20.10;;;12.70;;
49578;SDS011;35483;50.828;3.228;2023-04-01T23:38:31;24.58;;;14.25;;
49578;SDS011;35483;50.828;3.228;2023-04-01T23:41:02;25.80;;;14.68;;
49578;SDS011;35483;50.828;3.228;2023-04-01T23:43:31;22.05;;;14.00;;
49578;SDS011;35483;50.828;3.228;2023-04-01T23:46:00;23.50;;;11.80;;
49578;SDS011;35483;50.828;3.228;2023-04-01T23:48:32;19.50;;;10.45;;
49578;SDS011;35483;50.828;3.228;2023-04-01T23:51:02;21.20;;;12.55;;
49578;SDS011;35483;50.828;3.228;2023-04-01T23:53:29;20.88;;;12.15;;
49578;SDS011;35483;50.828;3.228;2023-04-01T23:55:58;18.92;;;10.80;;
49578;SDS011;35483;50.828;3.228;2023-04-01T23:58:43;17.58;;;10.93;;
